Time;durP1;ratioP1;P1;durP2;ratioP2;P2;SDS_P1;SDS_P2;PMS_P1;PMS_P2;Temp;Humidity;BMP_temperature;BMP_pressure;BME280_temperature;BME280_humidity;BME280_pressure;Samples;Min_cycle;Max_cycle;Signal;HPM_P1;HPM_P2
2020/12/15 00:02:14;;;;;;;5.90;5.30;;;;;;;;;;5101410;28;20188;-91
2020/12/15 00:04:42;;;;;;;5.38;4.53;;;;;;;;;;5101448;28;20271;-90
2020/12/15 00:07:09;;;;;;;5.18;4.78;;;;;;;;;;5101813;28;20197;-89
2020/12/15 00:09:36;;;;;;;5.75;5.20;;;;;;;;;;5101363;28;20199;-90
2020/12/15 00:12:04;;;;;;;6.53;5.38;;;;;;;;;;5101588;28;20221;-91
2020/12/15 00:14:31;;;;;;;5.85;5.35;;;;;;;;;;5100407;28;20287;-91
2020/12/15 00:16:59;;;;;;;6.10;5.45;;;;;;;;;;5101235;28;20195;-90
2020/12/15 00:19:26;;;;;;;5.57;4.90;;;;;;;;;;5102147;28;20196;-90
2020/12/15 00:21:54;;;;;;;5.82;5.22;;;;;;;;;;5100762;28;20288;-90
2020/12/15 00:24:21;;;;;;;5.32;4.82;;;;;;;;;;5101089;28;20185;-90
2020/12/15 00:26:48;;;;;;;6.30;5.70;;;;;;;;;;5100824;28;20222;-89
2020/12/15 00:29:17;;;;;;;5.93;5.32;;;;;;;;;;5101223;28;20418;-88
2020/12/15 00:31:44;;;;;;;5.40;4.90;;;;;;;;;;5101695;28;20308;-89
2020/12/15 00:34:12;;;;;;;5.68;5.03;;;;;;;;;;5100973;28;20196;-91
2020/12/15 00:36:39;;;;;;;5.38;4.88;;;;;;;;;;5101766;28;20207;-89
2020/12/15 00:39:06;;;;;;;7.13;5.65;;;;;;;;;;5101181;28;20188;-90
2020/12/15 00:41:33;;;;;;;6.25;5.65;;;;;;;;;;5100901;28;20203;-89
2020/12/15 00:44:00;;;;;;;5.78;5.25;;;;;;;;;;5100646;28;20185;-90
2020/12/15 00:46:28;;;;;;;6.03;5.15;;;;;;;;;;5100320;28;20185;-89
2020/12/15 00:48:55;;;;;;;5.50;5.00;;;;;;;;;;5100165;28;20181;-88
2020/12/15 00:51:22;;;;;;;6.57;5.72;;;;;;;;;;5100128;28;20196;-88
2020/12/15 00:53:49;;;;;;;6.22;5.32;;;;;;;;;;5099846;28;20214;-88
2020/12/15 00:56:17;;;;;;;6.88;5.75;;;;;;;;;;5100041;28;20228;-88
2020/12/15 00:58:44;;;;;;;6.60;5.88;;;;;;;;;;5100479;28;20459;-87
2020/12/15 01:01:12;;;;;;;6.15;5.60;;;;;;;;;;5100250;28;20189;-87
2020/12/15 01:03:40;;;;;;;6.15;5.55;;;;;;;;;;5100104;28;20191;-87
2020/12/15 01:06:08;;;;;;;6.25;5.63;;;;;;;;;;5100043;28;20263;-87
2020/12/15 01:08:35;;;;;;;6.50;5.88;;;;;;;;;;5100058;28;20191;-87
2020/12/15 01:11:02;;;;;;;6.88;6.25;;;;;;;;;;5100524;28;20195;-88
2020/12/15 01:13:29;;;;;;;6.32;5.72;;;;;;;;;;5099952;28;20238;-86
2020/12/15 01:15:56;;;;;;;7.00;5.82;;;;;;;;;;5099949;28;20542;-88
2020/12/15 01:18:23;;;;;;;7.10;5.72;;;;;;;;;;5100890;28;20210;-88
2020/12/15 01:20:50;;;;;;;6.22;5.63;;;;;;;;;;5099819;28;20192;-88
2020/12/15 01:23:17;;;;;;;5.85;5.35;;;;;;;;;;5099918;28;20181;-87
2020/12/15 01:25:44;;;;;;;5.80;5.20;;;;;;;;;;5099266;28;20615;-87
2020/12/15 01:28:11;;;;;;;6.65;5.68;;;;;;;;;;5099777;28;20191;-88
2020/12/15 01:30:38;;;;;;;6.75;6.05;;;;;;;;;;5099036;28;20207;-88
2020/12/15 01:33:05;;;;;;;6.53;5.90;;;;;;;;;;5099268;28;20240;-88
2020/12/15 01:35:32;;;;;;;5.72;5.13;;;;;;;;;;5099505;28;20181;-88
2020/12/15 01:37:59;;;;;;;6.68;6.07;;;;;;;;;;5099449;28;20206;-89
2020/12/15 01:40:27;;;;;;;6.28;5.22;;;;;;;;;;5099493;28;20177;-87
2020/12/15 01:42:53;;;;;;;6.75;5.50;;;;;;;;;;5099386;28;20188;-85
2020/12/15 01:45:21;;;;;;;5.93;5.32;;;;;;;;;;5098749;28;20210;-86
2020/12/15 01:47:48;;;;;;;6.60;6.00;;;;;;;;;;5099163;28;20176;-88
2020/12/15 01:50:15;;;;;;;7.00;6.38;;;;;;;;;;5099307;28;20173;-88
2020/12/15 01:52:42;;;;;;;6.47;5.97;;;;;;;;;;5099249;28;20216;-88
2020/12/15 01:55:11;;;;;;;6.38;5.78;;;;;;;;;;5098579;28;20184;-89
2020/12/15 01:57:39;;;;;;;7.97;6.25;;;;;;;;;;5098573;28;20228;-88
2020/12/15 02:00:06;;;;;;;6.05;5.32;;;;;;;;;;5099467;28;20193;-88
2020/12/15 02:02:33;;;;;;;7.32;5.70;;;;;;;;;;5099153;28;20185;-91
2020/12/15 02:05:00;;;;;;;7.45;6.22;;;;;;;;;;5099942;28;20204;-91
2020/12/15 02:07:27;;;;;;;6.68;6.07;;;;;;;;;;5100076;28;20189;-91
2020/12/15 02:09:55;;;;;;;6.47;5.80;;;;;;;;;;5098857;28;20197;-92
2020/12/15 02:12:23;;;;;;;7.47;6.15;;;;;;;;;;5098691;28;20210;-92
2020/12/15 02:14:50;;;;;;;5.93;5.43;;;;;;;;;;5099302;28;20283;-91
2020/12/15 02:17:17;;;;;;;5.97;5.38;;;;;;;;;;5099873;28;20214;-91
2020/12/15 02:19:44;;;;;;;7.30;6.43;;;;;;;;;;5099091;28;20181;-88
2020/12/15 02:22:12;;;;;;;7.30;6.60;;;;;;;;;;5099180;28;20199;-88
2020/12/15 02:24:39;;;;;;;6.72;6.13;;;;;;;;;;5098944;28;20538;-89
2020/12/15 02:27:06;;;;;;;6.40;5.80;;;;;;;;;;5098943;28;20216;-87
2020/12/15 02:29:33;;;;;;;6.47;5.82;;;;;;;;;;5098451;28;20605;-87
2020/12/15 02:32:00;;;;;;;7.40;6.43;;;;;;;;;;5098584;28;20514;-88
2020/12/15 02:34:27;;;;;;;8.25;7.45;;;;;;;;;;5098743;28;20200;-88
2020/12/15 02:36:54;;;;;;;7.53;6.80;;;;;;;;;;5098004;28;20200;-86
2020/12/15 02:39:22;;;;;;;8.00;7.20;;;;;;;;;;5047495;28;20574;-86
2020/12/15 02:41:53;;;;;;;8.10;6.95;;;;;;;;;;5045489;28;20262;-89
2020/12/15 02:44:21;;;;;;;8.82;6.90;;;;;;;;;;5098853;28;20180;-89
2020/12/15 02:46:48;;;;;;;8.40;7.13;;;;;;;;;;5098808;28;20215;-88
2020/12/15 02:49:15;;;;;;;8.82;7.95;;;;;;;;;;5098514;28;20192;-88
2020/12/15 02:51:45;;;;;;;8.13;7.32;;;;;;;;;;5098273;28;20200;-87
2020/12/15 02:54:12;;;;;;;7.70;6.93;;;;;;;;;;5098395;28;20209;-87
2020/12/15 02:56:40;;;;;;;7.97;7.18;;;;;;;;;;5098076;28;20224;-87
2020/12/15 02:59:07;;;;;;;8.75;7.32;;;;;;;;;;5098078;28;20565;-88
2020/12/15 03:01:39;;;;;;;8.52;7.70;;;;;;;;;;5098483;28;20184;-88
2020/12/15 03:04:07;;;;;;;8.27;7.50;;;;;;;;;;5099222;28;20491;-88
2020/12/15 03:06:34;;;;;;;8.52;7.70;;;;;;;;;;5099866;28;20180;-89
2020/12/15 03:09:01;;;;;;;9.23;8.32;;;;;;;;;;5102312;28;20199;-87
2020/12/15 03:11:28;;;;;;;10.82;9.43;;;;;;;;;;5102112;28;20196;-89
2020/12/15 03:13:56;;;;;;;9.50;8.60;;;;;;;;;;5102355;28;20208;-87
2020/12/15 03:16:23;;;;;;;10.32;8.93;;;;;;;;;;5102228;28;20183;-89
2020/12/15 03:18:50;;;;;;;9.80;8.70;;;;;;;;;;5102251;28;20180;-88
2020/12/15 03:21:20;;;;;;;9.93;8.93;;;;;;;;;;5102099;28;20185;-90
2020/12/15 03:23:47;;;;;;;9.32;8.35;;;;;;;;;;5102921;28;20203;-89
2020/12/15 03:26:14;;;;;;;9.60;8.55;;;;;;;;;;5101796;28;20214;-90
2020/12/15 03:28:41;;;;;;;8.75;7.85;;;;;;;;;;5102049;28;20523;-90
2020/12/15 03:31:09;;;;;;;10.30;9.18;;;;;;;;;;5102099;28;20206;-90
2020/12/15 03:33:36;;;;;;;8.85;7.57;;;;;;;;;;5102424;28;20208;-90
2020/12/15 03:36:03;;;;;;;8.30;7.53;;;;;;;;;;5102569;28;20199;-90
2020/12/15 03:38:30;;;;;;;8.43;7.47;;;;;;;;;;5101959;28;20176;-90
2020/12/15 03:40:57;;;;;;;7.72;7.03;;;;;;;;;;5101914;28;20212;-90
2020/12/15 03:43:24;;;;;;;9.18;8.27;;;;;;;;;;5102028;28;20199;-92
2020/12/15 03:45:51;;;;;;;10.23;8.18;;;;;;;;;;5101771;28;20197;-88
2020/12/15 03:48:19;;;;;;;8.35;7.50;;;;;;;;;;5101220;28;20177;-91
2020/12/15 03:50:46;;;;;;;8.68;7.25;;;;;;;;;;5101375;28;20267;-90
2020/12/15 03:53:13;;;;;;;10.75;8.52;;;;;;;;;;5101434;28;20220;-89
2020/12/15 03:55:40;;;;;;;8.90;7.80;;;;;;;;;;5101361;28;20263;-90
2020/12/15 03:58:07;;;;;;;8.05;7.18;;;;;;;;;;5101917;28;20177;-89
2020/12/15 04:00:34;;;;;;;8.45;6.95;;;;;;;;;;5101515;28;20202;-90
2020/12/15 04:03:01;;;;;;;9.75;8.85;;;;;;;;;;5101454;28;20181;-91
2020/12/15 04:05:29;;;;;;;8.48;7.60;;;;;;;;;;5101500;28;20185;-89
2020/12/15 04:07:56;;;;;;;7.90;7.00;;;;;;;;;;5101558;28;20208;-91
2020/12/15 04:10:23;;;;;;;9.15;8.25;;;;;;;;;;5102116;28;20325;-90
2020/12/15 04:12:49;;;;;;;6.93;6.32;;;;;;;;;;5101732;28;20446;-89
2020/12/15 04:15:16;;;;;;;7.32;5.90;;;;;;;;;;5101324;28;20181;-89
2020/12/15 04:17:43;;;;;;;7.68;6.88;;;;;;;;;;5100084;28;20219;-89
2020/12/15 04:20:11;;;;;;;7.72;6.47;;;;;;;;;;5100785;28;20185;-91
2020/12/15 04:22:39;;;;;;;6.95;5.88;;;;;;;;;;5100801;28;20202;-89
2020/12/15 04:25:06;;;;;;;6.63;5.65;;;;;;;;;;5100965;28;20180;-89
2020/12/15 04:27:33;;;;;;;7.30;6.30;;;;;;;;;;5100669;28;20323;-89
2020/12/15 04:30:00;;;;;;;7.97;6.55;;;;;;;;;;5101049;28;20177;-91
2020/12/15 04:32:27;;;;;;;6.82;6.10;;;;;;;;;;5101047;28;20258;-91
2020/12/15 04:34:54;;;;;;;8.82;7.20;;;;;;;;;;5101357;28;20220;-91
2020/12/15 04:37:21;;;;;;;7.25;6.55;;;;;;;;;;5100600;28;20180;-93
2020/12/15 04:39:49;;;;;;;6.95;6.25;;;;;;;;;;5100524;28;20180;-92
2020/12/15 04:42:22;;;;;;;6.85;6.10;;;;;;;;;;5101761;28;20268;-95
2020/12/15 04:44:51;;;;;;;6.72;6.03;;;;;;;;;;5101767;28;20534;-89
2020/12/15 04:47:19;;;;;;;6.03;5.43;;;;;;;;;;5100490;28;20187;-87
2020/12/15 04:49:59;;;;;;;7.80;6.80;;;;;;;;;;5100559;28;20173;-93
2020/12/15 04:52:34;;;;;;;7.43;6.45;;;;;;;;;;5100892;28;20181;-92
2020/12/15 04:55:02;;;;;;;8.45;6.05;;;;;;;;;;5100985;28;20541;-91
2020/12/15 04:57:29;;;;;;;6.97;5.60;;;;;;;;;;5099715;28;20239;-90
2020/12/15 05:00:03;;;;;;;5.60;5.05;;;;;;;;;;5100500;28;20192;-93
2020/12/15 05:02:30;;;;;;;5.68;4.65;;;;;;;;;;5100449;28;20207;-93
2020/12/15 05:04:58;;;;;;;6.72;5.80;;;;;;;;;;5100985;28;20196;-93
2020/12/15 05:07:25;;;;;;;7.90;6.40;;;;;;;;;;5100947;28;20203;-93
2020/12/15 05:09:52;;;;;;;5.93;5.43;;;;;;;;;;5101240;28;20212;-94
2020/12/15 05:12:20;;;;;;;6.47;5.35;;;;;;;;;;5101393;28;20196;-93
2020/12/15 05:14:51;;;;;;;7.50;5.20;;;;;;;;;;5100684;28;20284;-94
2020/12/15 05:17:25;;;;;;;6.43;5.82;;;;;;;;;;5102380;28;20211;-94
2020/12/15 05:19:52;;;;;;;6.43;5.63;;;;;;;;;;5100652;28;20196;-93
2020/12/15 05:22:19;;;;;;;6.90;6.22;;;;;;;;;;5103922;28;20216;-94
2020/12/15 05:24:50;;;;;;;5.57;5.07;;;;;;;;;;5106737;28;20231;-95
2020/12/15 05:27:29;;;;;;;7.93;6.13;;;;;;;;;;5102241;28;20224;-95
2020/12/15 05:30:07;;;;;;;6.32;5.72;;;;;;;;;;5102019;28;20534;-94
2020/12/15 05:32:35;;;;;;;6.63;5.97;;;;;;;;;;5101154;28;20524;-95
2020/12/15 05:38:08;;;;;;;7.13;6.43;;;;;;;;;;5062302;28;20244;-94
2020/12/15 05:45:57;;;;;;;8.32;6.65;;;;;;;;;;5131706;22;20245;-92
2020/12/15 05:48:50;;;;;;;7.05;6.28;;;;;;;;;;5045971;28;20190;-94
2020/12/15 05:51:18;;;;;;;6.05;5.45;;;;;;;;;;4990992;28;20200;-95
2020/12/15 05:54:00;;;;;;;6.47;5.50;;;;;;;;;;4994303;28;20240;-95
2020/12/15 05:57:20;;;;;;;5.20;4.65;;;;;;;;;;4980619;28;20261;-95
2020/12/15 06:00:43;;;;;;;5.60;5.10;;;;;;;;;;4827154;29;20202;-95
2020/12/15 06:03:12;;;;;;;5.15;4.68;;;;;;;;;;4802709;30;20210;-94
2020/12/15 06:05:40;;;;;;;6.72;5.45;;;;;;;;;;4794112;29;20464;-94
2020/12/15 06:08:07;;;;;;;6.15;5.43;;;;;;;;;;4793262;30;20233;-94
2020/12/15 06:10:35;;;;;;;5.65;5.13;;;;;;;;;;4794675;29;20211;-94
2020/12/15 06:13:04;;;;;;;5.85;5.22;;;;;;;;;;4795086;30;20210;-94
2020/12/15 06:16:20;;;;;;;7.55;6.43;;;;;;;;;;4796541;30;20215;-94
2020/12/15 06:18:48;;;;;;;5.88;5.28;;;;;;;;;;4743973;30;20305;-93
2020/12/15 06:21:16;;;;;;;5.47;5.00;;;;;;;;;;4769526;30;20294;-95
2020/12/15 06:23:44;;;;;;;5.00;4.63;;;;;;;;;;4794605;30;20291;-94
2020/12/15 06:26:11;;;;;;;7.28;5.40;;;;;;;;;;4793777;30;20227;-93
2020/12/15 06:28:38;;;;;;;5.50;5.00;;;;;;;;;;4811598;29;20247;-94
2020/12/15 06:31:05;;;;;;;5.68;5.05;;;;;;;;;;4907242;29;20514;-95
2020/12/15 06:33:42;;;;;;;6.07;5.57;;;;;;;;;;4922765;29;20202;-93
2020/12/15 06:36:10;;;;;;;5.90;5.40;;;;;;;;;;4923952;29;20199;-93
2020/12/15 06:38:38;;;;;;;7.07;5.45;;;;;;;;;;4923232;29;20546;-94
2020/12/15 06:41:05;;;;;;;7.07;6.38;;;;;;;;;;4922639;29;20525;-94
2020/12/15 06:44:30;;;;;;;6.53;5.80;;;;;;;;;;4922443;29;20198;-93
2020/12/15 06:46:57;;;;;;;5.60;5.20;;;;;;;;;;4923538;29;20209;-92
2020/12/15 06:50:09;;;;;;;6.60;5.88;;;;;;;;;;4924290;29;20203;-93
2020/12/15 06:56:41;;;;;;;5.97;5.47;;;;;;;;;;4885312;29;20211;-94
2020/12/15 06:59:08;;;;;;;6.28;5.68;;;;;;;;;;4879624;29;20394;-94
2020/12/15 07:01:35;;;;;;;9.00;6.20;;;;;;;;;;4866699;29;20479;-94
2020/12/15 07:04:03;;;;;;;6.75;5.93;;;;;;;;;;4903619;29;20211;-94
2020/12/15 07:06:30;;;;;;;8.23;6.60;;;;;;;;;;4905938;29;20246;-93
2020/12/15 07:08:58;;;;;;;7.97;7.20;;;;;;;;;;4903258;29;20210;-94
2020/12/15 07:11:26;;;;;;;8.43;7.35;;;;;;;;;;4902984;29;20524;-93
2020/12/15 07:13:59;;;;;;;11.43;9.57;;;;;;;;;;4902169;29;20204;-93
2020/12/15 07:16:26;;;;;;;15.70;11.45;;;;;;;;;;4904524;29;20208;-94
2020/12/15 07:18:53;;;;;;;14.38;11.52;;;;;;;;;;4940268;29;20198;-93
2020/12/15 07:21:23;;;;;;;9.65;8.00;;;;;;;;;;4940755;29;20213;-93
2020/12/15 07:23:51;;;;;;;9.77;8.20;;;;;;;;;;4941839;29;20217;-94
2020/12/15 07:26:19;;;;;;;8.52;7.63;;;;;;;;;;4941257;29;20309;-94
2020/12/15 07:28:49;;;;;;;10.93;9.75;;;;;;;;;;4999496;28;20521;-95
2020/12/15 07:31:28;;;;;;;9.75;8.73;;;;;;;;;;5009759;28;20234;-92
2020/12/15 07:34:08;;;;;;;12.73;10.30;;;;;;;;;;5038564;28;20293;-94
2020/12/15 07:36:38;;;;;;;12.35;10.40;;;;;;;;;;5041140;28;20294;-94
2020/12/15 07:39:06;;;;;;;12.80;10.27;;;;;;;;;;5040237;28;20198;-95
2020/12/15 07:41:37;;;;;;;9.13;8.23;;;;;;;;;;5043368;28;20198;-94
2020/12/15 07:44:07;;;;;;;12.73;11.05;;;;;;;;;;5039780;28;20190;-94
2020/12/15 07:46:36;;;;;;;11.18;9.93;;;;;;;;;;5039042;28;20313;-94
2020/12/15 07:49:08;;;;;;;11.30;9.90;;;;;;;;;;5042138;28;20289;-95
2020/12/15 07:51:39;;;;;;;12.05;9.98;;;;;;;;;;5045518;28;20207;-95
2020/12/15 07:54:07;;;;;;;11.90;9.52;;;;;;;;;;5043602;28;20213;-94
2020/12/15 07:56:34;;;;;;;12.40;9.95;;;;;;;;;;5048585;28;20309;-93
2020/12/15 07:59:02;;;;;;;13.57;10.38;;;;;;;;;;5044833;28;20273;-94
2020/12/15 08:01:31;;;;;;;10.65;8.68;;;;;;;;;;5046264;28;20198;-94
2020/12/15 08:04:08;;;;;;;11.15;9.30;;;;;;;;;;5044901;28;20211;-95
2020/12/15 08:06:43;;;;;;;11.02;9.80;;;;;;;;;;5044319;28;20666;-95
2020/12/15 08:09:14;;;;;;;15.45;10.55;;;;;;;;;;5043997;28;20205;-95
2020/12/15 08:11:45;;;;;;;11.35;9.63;;;;;;;;;;5044918;28;20285;-94
2020/12/15 08:14:14;;;;;;;12.55;10.48;;;;;;;;;;5045698;28;20258;-94
2020/12/15 08:16:42;;;;;;;11.75;10.52;;;;;;;;;;5041966;28;20326;-94
2020/12/15 08:19:11;;;;;;;12.27;10.18;;;;;;;;;;5042595;28;20264;-92
2020/12/15 08:21:43;;;;;;;13.30;10.75;;;;;;;;;;5042592;28;20216;-93
2020/12/15 08:24:12;;;;;;;13.43;11.23;;;;;;;;;;5042564;28;20206;-93
2020/12/15 08:26:40;;;;;;;11.68;9.85;;;;;;;;;;5044773;28;20273;-94
2020/12/15 08:29:10;;;;;;;12.82;10.27;;;;;;;;;;5041782;28;20180;-94
2020/12/15 08:31:39;;;;;;;11.35;10.15;;;;;;;;;;5042969;28;20285;-94
2020/12/15 08:34:17;;;;;;;10.43;9.32;;;;;;;;;;5041735;28;20185;-94
2020/12/15 08:36:48;;;;;;;11.10;9.05;;;;;;;;;;5042537;28;20559;-95
2020/12/15 08:39:19;;;;;;;10.63;8.68;;;;;;;;;;5042671;28;20194;-94
2020/12/15 08:41:51;;;;;;;11.20;8.90;;;;;;;;;;5043008;28;20194;-94
2020/12/15 08:44:20;;;;;;;10.35;9.25;;;;;;;;;;5042179;28;20202;-94
2020/12/15 08:51:50;;;;;;;9.73;7.72;;;;;;;;;;4963965;28;20185;-94
2020/12/15 09:03:12;;;;;;;10.48;9.38;;;;;;;;;;5025363;26;20239;-94
2020/12/15 09:05:48;;;;;;;12.68;9.38;;;;;;;;;;5030784;28;20217;-94
2020/12/15 09:08:16;;;;;;;9.88;7.35;;;;;;;;;;5029000;28;20207;-95
2020/12/15 09:10:47;;;;;;;8.02;7.10;;;;;;;;;;5033387;28;20199;-94
2020/12/15 09:13:14;;;;;;;9.85;7.57;;;;;;;;;;4985169;28;20215;-94
2020/12/15 09:15:53;;;;;;;8.20;6.40;;;;;;;;;;5032451;28;20238;-94
2020/12/15 09:18:52;;;;;;;7.80;6.05;;;;;;;;;;4986230;28;20247;-94
2020/12/15 09:21:24;;;;;;;9.73;7.07;;;;;;;;;;4927979;29;20206;-95
2020/12/15 09:23:55;;;;;;;6.45;5.38;;;;;;;;;;4934007;29;20495;-95
2020/12/15 09:26:23;;;;;;;7.75;6.25;;;;;;;;;;4927724;29;20248;-95
2020/12/15 09:28:51;;;;;;;9.45;6.07;;;;;;;;;;4929816;29;20203;-95
2020/12/15 09:35:08;;;;;;;6.47;5.68;;;;;;;;;;4926217;29;20304;-95
2020/12/15 09:37:36;;;;;;;7.15;6.20;;;;;;;;;;4925068;29;20198;-94
2020/12/15 09:40:04;;;;;;;6.50;5.20;;;;;;;;;;4969014;28;20570;-94
2020/12/15 09:42:32;;;;;;;7.75;6.95;;;;;;;;;;4998596;28;20203;-95
2020/12/15 09:45:12;;;;;;;6.70;5.50;;;;;;;;;;5032266;28;20230;-96
2020/12/15 09:47:43;;;;;;;8.52;6.75;;;;;;;;;;5028348;28;20209;-95
2020/12/15 09:50:13;;;;;;;5.85;5.25;;;;;;;;;;5031124;28;20203;-96
2020/12/15 09:55:55;;;;;;;5.90;4.78;;;;;;;;;;5009796;28;20491;-95
2020/12/15 09:58:26;;;;;;;6.82;5.60;;;;;;;;;;5025623;28;20456;-95
2020/12/15 10:00:53;;;;;;;9.02;5.70;;;;;;;;;;4993664;28;20474;-94
2020/12/15 10:03:21;;;;;;;6.82;5.47;;;;;;;;;;5022609;28;20218;-95
2020/12/15 10:05:49;;;;;;;5.97;5.25;;;;;;;;;;5024016;28;20289;-94
2020/12/15 10:08:16;;;;;;;9.85;6.32;;;;;;;;;;5024564;28;20226;-94
2020/12/15 10:10:44;;;;;;;6.63;5.88;;;;;;;;;;5023379;28;20275;-95
2020/12/15 10:13:11;;;;;;;8.30;6.30;;;;;;;;;;5025570;28;20206;-95
2020/12/15 10:19:46;;;;;;;8.48;7.38;;;;;;;;;;5014819;28;20191;-96
2020/12/15 10:23:05;;;;;;;9.27;7.63;;;;;;;;;;5030480;28;20613;-95
2020/12/15 10:25:33;;;;;;;12.70;7.93;;;;;;;;;;4945349;29;20202;-95
2020/12/15 10:28:00;;;;;;;8.45;7.57;;;;;;;;;;4940342;29;20582;-93
2020/12/15 10:30:27;;;;;;;8.80;7.53;;;;;;;;;;4940869;29;20591;-94
2020/12/15 10:32:54;;;;;;;9.80;8.38;;;;;;;;;;4943344;29;20213;-94
2020/12/15 10:35:22;;;;;;;9.30;8.35;;;;;;;;;;4943869;29;20221;-94
2020/12/15 10:37:49;;;;;;;9.88;8.15;;;;;;;;;;4941086;29;20224;-94
2020/12/15 10:40:17;;;;;;;8.95;7.95;;;;;;;;;;4940754;29;20296;-94
2020/12/15 10:42:44;;;;;;;8.88;7.05;;;;;;;;;;4940612;29;20206;-95
2020/12/15 10:45:12;;;;;;;7.63;6.90;;;;;;;;;;4939922;29;20241;-94
2020/12/15 10:47:39;;;;;;;10.07;7.68;;;;;;;;;;4941452;29;20201;-94
2020/12/15 10:50:06;;;;;;;8.38;7.50;;;;;;;;;;4941073;29;20300;-94
2020/12/15 10:52:33;;;;;;;10.00;7.78;;;;;;;;;;4940453;29;20198;-94
2020/12/15 10:55:02;;;;;;;6.75;6.03;;;;;;;;;;4940778;29;20536;-94
2020/12/15 10:57:30;;;;;;;9.88;8.38;;;;;;;;;;4939995;29;20244;-95
2020/12/15 11:00:03;;;;;;;7.43;6.65;;;;;;;;;;4949303;28;20201;-95
2020/12/15 11:02:38;;;;;;;9.07;7.38;;;;;;;;;;5018997;28;20241;-93
2020/12/15 11:05:16;;;;;;;7.88;7.03;;;;;;;;;;5019338;28;20233;-94
2020/12/15 11:07:46;;;;;;;7.53;6.65;;;;;;;;;;5019335;28;20199;-94
2020/12/15 11:10:13;;;;;;;7.55;6.70;;;;;;;;;;5019706;28;20195;-93
2020/12/15 11:12:41;;;;;;;10.88;7.03;;;;;;;;;;5020432;28;20268;-94
2020/12/15 11:15:08;;;;;;;8.40;7.13;;;;;;;;;;5019837;28;20535;-94
2020/12/15 11:17:35;;;;;;;8.02;7.30;;;;;;;;;;5019573;28;20497;-94
2020/12/15 11:20:04;;;;;;;8.65;6.28;;;;;;;;;;5020271;28;20205;-94
2020/12/15 11:22:31;;;;;;;8.30;7.38;;;;;;;;;;5020536;28;20257;-92
2020/12/15 11:24:58;;;;;;;8.57;7.32;;;;;;;;;;5019768;28;20440;-94
2020/12/15 11:27:27;;;;;;;9.35;8.35;;;;;;;;;;5020532;28;20310;-94
2020/12/15 11:29:55;;;;;;;7.22;6.32;;;;;;;;;;5022764;28;20238;-94
2020/12/15 11:32:22;;;;;;;9.45;6.63;;;;;;;;;;5022531;28;20206;-93
2020/12/15 11:34:49;;;;;;;7.50;6.65;;;;;;;;;;5022676;28;20207;-95
2020/12/15 11:37:16;;;;;;;8.73;7.13;;;;;;;;;;5021927;28;20334;-94
2020/12/15 11:39:43;;;;;;;7.80;7.00;;;;;;;;;;5022758;28;20398;-94
2020/12/15 11:42:10;;;;;;;6.47;5.85;;;;;;;;;;5021597;28;20195;-93
2020/12/15 11:44:50;;;;;;;7.70;6.80;;;;;;;;;;5024269;28;20458;-95
2020/12/15 11:47:19;;;;;;;6.30;5.45;;;;;;;;;;5022778;28;20213;-94
2020/12/15 11:49:50;;;;;;;7.85;6.57;;;;;;;;;;5023070;28;20290;-95
2020/12/15 11:52:17;;;;;;;7.53;6.22;;;;;;;;;;5022419;28;20199;-95
2020/12/15 11:54:45;;;;;;;6.30;5.50;;;;;;;;;;5022331;28;20203;-94
2020/12/15 11:57:14;;;;;;;7.00;6.35;;;;;;;;;;5021437;28;20250;-94
2020/12/15 12:00:10;;;;;;;5.53;4.97;;;;;;;;;;5021855;28;20199;-94
2020/12/15 12:02:38;;;;;;;7.13;5.78;;;;;;;;;;5030061;28;20321;-95
2020/12/15 12:05:05;;;;;;;6.25;5.07;;;;;;;;;;5043912;28;20210;-94
2020/12/15 12:07:49;;;;;;;7.95;6.07;;;;;;;;;;5044069;28;20605;-94
2020/12/15 12:10:16;;;;;;;7.50;5.72;;;;;;;;;;5044613;28;20174;-95
2020/12/15 12:12:47;;;;;;;6.72;5.47;;;;;;;;;;5043909;28;20285;-95
2020/12/15 12:15:16;;;;;;;8.32;6.95;;;;;;;;;;5025917;28;20277;-93
2020/12/15 12:17:52;;;;;;;6.20;5.60;;;;;;;;;;5042230;28;20218;-94
2020/12/15 12:20:19;;;;;;;5.82;4.68;;;;;;;;;;5041806;28;20269;-94
2020/12/15 12:22:46;;;;;;;4.32;3.92;;;;;;;;;;5042831;28;20217;-93
2020/12/15 12:25:13;;;;;;;4.85;4.35;;;;;;;;;;5043652;28;20210;-93
2020/12/15 12:27:40;;;;;;;5.00;4.20;;;;;;;;;;5044199;28;20547;-93
2020/12/15 12:30:10;;;;;;;5.75;4.78;;;;;;;;;;5043330;28;20277;-93
2020/12/15 12:32:38;;;;;;;4.30;3.90;;;;;;;;;;5041491;28;20511;-91
2020/12/15 12:35:06;;;;;;;5.35;4.57;;;;;;;;;;5041957;28;20206;-93
2020/12/15 12:37:33;;;;;;;3.95;3.63;;;;;;;;;;5040817;28;20222;-93
2020/12/15 12:40:00;;;;;;;4.60;3.90;;;;;;;;;;5039713;28;20187;-93
2020/12/15 12:42:27;;;;;;;5.72;5.13;;;;;;;;;;5042119;28;20202;-93
2020/12/15 12:44:54;;;;;;;4.70;4.18;;;;;;;;;;5043884;28;20265;-94
2020/12/15 12:47:28;;;;;;;5.47;4.90;;;;;;;;;;5045955;28;20194;-95
2020/12/15 12:50:15;;;;;;;4.22;3.83;;;;;;;;;;5049957;28;20214;-96
2020/12/15 12:52:42;;;;;;;4.90;4.18;;;;;;;;;;5038509;28;20202;-94
2020/12/15 12:55:10;;;;;;;5.28;4.45;;;;;;;;;;5040358;28;20225;-92
2020/12/15 12:57:37;;;;;;;7.43;4.78;;;;;;;;;;5040619;28;20305;-93
2020/12/15 13:00:05;;;;;;;6.18;4.18;;;;;;;;;;5040858;28;20214;-93
2020/12/15 13:02:40;;;;;;;6.72;4.28;;;;;;;;;;5040998;28;20230;-95
2020/12/15 13:05:07;;;;;;;5.18;4.68;;;;;;;;;;5040684;28;20202;-93
2020/12/15 13:07:35;;;;;;;5.03;4.50;;;;;;;;;;5039833;28;20477;-91
2020/12/15 13:10:02;;;;;;;5.53;4.80;;;;;;;;;;5040779;28;20213;-93
2020/12/15 13:12:29;;;;;;;4.43;3.92;;;;;;;;;;5040743;28;20210;-93
2020/12/15 13:14:57;;;;;;;4.45;4.00;;;;;;;;;;5040474;28;20550;-92
2020/12/15 13:17:24;;;;;;;5.07;4.32;;;;;;;;;;5040093;28;20222;-94
2020/12/15 13:19:52;;;;;;;5.20;4.22;;;;;;;;;;5039814;28;20583;-93
2020/12/15 13:22:19;;;;;;;7.03;5.50;;;;;;;;;;5040013;28;20260;-93
2020/12/15 13:24:49;;;;;;;4.32;3.50;;;;;;;;;;5041021;28;20497;-94
2020/12/15 13:27:16;;;;;;;3.80;3.50;;;;;;;;;;5040649;28;20280;-94
2020/12/15 13:29:43;;;;;;;4.70;4.13;;;;;;;;;;5040341;28;20195;-93
2020/12/15 13:32:10;;;;;;;4.57;4.18;;;;;;;;;;5039635;28;20179;-92
2020/12/15 13:34:37;;;;;;;4.38;4.03;;;;;;;;;;5039605;28;20193;-93
2020/12/15 13:37:05;;;;;;;4.65;3.95;;;;;;;;;;5039525;28;20278;-94
2020/12/15 13:39:31;;;;;;;4.75;3.85;;;;;;;;;;5040043;28;20202;-92
2020/12/15 13:41:59;;;;;;;4.50;4.10;;;;;;;;;;5039818;28;20198;-92
2020/12/15 13:44:26;;;;;;;4.07;3.53;;;;;;;;;;5039282;28;20521;-93
2020/12/15 13:46:53;;;;;;;5.03;4.63;;;;;;;;;;5039105;28;20179;-95
2020/12/15 13:49:20;;;;;;;5.95;4.60;;;;;;;;;;5039767;28;20191;-93
2020/12/15 13:51:48;;;;;;;4.95;4.50;;;;;;;;;;5038826;28;20202;-92
2020/12/15 13:54:15;;;;;;;5.75;3.72;;;;;;;;;;5039495;28;20226;-92
2020/12/15 13:56:42;;;;;;;4.65;3.70;;;;;;;;;;5039157;28;20345;-94
2020/12/15 13:59:10;;;;;;;4.57;4.18;;;;;;;;;;5039554;28;20202;-91
2020/12/15 14:01:42;;;;;;;4.55;4.15;;;;;;;;;;5039612;28;20206;-93
2020/12/15 14:04:09;;;;;;;4.70;4.30;;;;;;;;;;5039430;28;20449;-93
2020/12/15 14:06:36;;;;;;;4.53;4.07;;;;;;;;;;5039466;28;20277;-93
2020/12/15 14:09:03;;;;;;;4.85;4.50;;;;;;;;;;5005769;28;20442;-91
2020/12/15 14:11:30;;;;;;;4.90;4.40;;;;;;;;;;5039724;28;20209;-93
2020/12/15 14:13:57;;;;;;;4.60;4.13;;;;;;;;;;4979662;28;20212;-93
2020/12/15 14:16:25;;;;;;;4.40;4.00;;;;;;;;;;4979599;28;20208;-94
2020/12/15 14:18:52;;;;;;;4.85;4.43;;;;;;;;;;4979638;28;20263;-93
2020/12/15 14:21:19;;;;;;;3.95;3.63;;;;;;;;;;4979289;28;20203;-96
2020/12/15 14:23:46;;;;;;;5.28;4.88;;;;;;;;;;4978803;28;20185;-93
2020/12/15 14:26:15;;;;;;;5.03;4.53;;;;;;;;;;4978876;28;20302;-93
2020/12/15 14:28:42;;;;;;;5.78;4.32;;;;;;;;;;4979060;28;20208;-92
2020/12/15 14:31:09;;;;;;;5.20;4.00;;;;;;;;;;4985140;28;20205;-92
2020/12/15 14:33:37;;;;;;;4.65;4.25;;;;;;;;;;5038880;28;20455;-93
2020/12/15 14:36:05;;;;;;;5.68;4.93;;;;;;;;;;5039564;28;20516;-94
2020/12/15 14:38:35;;;;;;;5.00;4.50;;;;;;;;;;5039024;28;20514;-94
2020/12/15 14:41:02;;;;;;;5.18;4.78;;;;;;;;;;5039052;28;20200;-93
2020/12/15 14:43:29;;;;;;;5.93;4.60;;;;;;;;;;5038461;28;20489;-92
2020/12/15 14:45:56;;;;;;;6.05;5.28;;;;;;;;;;5040087;28;20229;-95
2020/12/15 14:48:23;;;;;;;4.60;4.20;;;;;;;;;;5040389;28;20278;-93
2020/12/15 14:50:51;;;;;;;5.18;4.68;;;;;;;;;;5039186;28;20195;-94
2020/12/15 14:53:18;;;;;;;6.80;5.40;;;;;;;;;;4978996;28;20204;-93
2020/12/15 14:55:45;;;;;;;5.72;5.15;;;;;;;;;;4979472;28;20270;-93
2020/12/15 14:58:12;;;;;;;5.43;4.78;;;;;;;;;;4978725;28;20650;-92
2020/12/15 15:00:39;;;;;;;6.03;5.40;;;;;;;;;;4979662;28;20479;-94
2020/12/15 15:03:06;;;;;;;5.75;5.25;;;;;;;;;;4981267;28;20322;-94
2020/12/15 15:05:33;;;;;;;5.45;4.82;;;;;;;;;;4982631;28;20200;-92
2020/12/15 15:08:02;;;;;;;5.60;5.10;;;;;;;;;;4984896;28;20290;-93
2020/12/15 15:10:29;;;;;;;5.68;5.18;;;;;;;;;;4983268;28;20212;-94
2020/12/15 15:12:56;;;;;;;5.47;4.97;;;;;;;;;;4984139;28;20550;-94
2020/12/15 15:15:23;;;;;;;5.47;4.97;;;;;;;;;;4984266;28;20200;-93
2020/12/15 15:17:50;;;;;;;5.15;4.70;;;;;;;;;;5014864;28;20222;-94
2020/12/15 15:20:17;;;;;;;6.30;4.72;;;;;;;;;;5046346;28;20286;-93
2020/12/15 15:22:53;;;;;;;8.82;5.45;;;;;;;;;;5042997;28;20202;-93
2020/12/15 15:25:22;;;;;;;4.97;4.28;;;;;;;;;;5042697;28;20522;-94
2020/12/15 15:27:49;;;;;;;4.80;4.32;;;;;;;;;;5042233;28;20364;-94
2020/12/15 15:30:16;;;;;;;5.35;4.82;;;;;;;;;;5041923;28;20274;-93
2020/12/15 15:32:43;;;;;;;5.03;4.60;;;;;;;;;;5042980;28;20203;-95